sensor_id;sensor_type;location;lat;lon;timestamp;temperature;humidity
67555;HTU21D;54385;53.516;49.456;2024-03-08T00:00:06;17.76;10.65
67555;HTU21D;54385;53.516;49.456;2024-03-08T00:02:42;17.78;10.62
67555;HTU21D;54385;53.516;49.456;2024-03-08T00:05:09;17.79;10.65
67555;HTU21D;54385;53.516;49.456;2024-03-08T00:07:39;17.80;10.66
67555;HTU21D;54385;53.516;49.456;2024-03-08T00:10:06;17.82;10.65
67555;HTU21D;54385;53.516;49.456;2024-03-08T00:12:41;17.84;10.62
67555;HTU21D;54385;53.516;49.456;2024-03-08T00:15:17;17.84;10.59
67555;HTU21D;54385;53.516;49.456;2024-03-08T00:17:44;17.84;10.61
67555;HTU21D;54385;53.516;49.456;2024-03-08T00:20:11;17.84;10.58
67555;HTU21D;54385;53.516;49.456;2024-03-08T00:22:38;17.83;10.58
67555;HTU21D;54385;53.516;49.456;2024-03-08T00:25:06;17.84;10.56
67555;HTU21D;54385;53.516;49.456;2024-03-08T00:27:36;17.84;10.53
67555;HTU21D;54385;53.516;49.456;2024-03-08T00:30:03;17.84;10.51
67555;HTU21D;54385;53.516;49.456;2024-03-08T00:32:29;17.82;10.48
67555;HTU21D;54385;53.516;49.456;2024-03-08T00:34:58;17.79;10.45
67555;HTU21D;54385;53.516;49.456;2024-03-08T00:37:24;17.77;10.43
67555;HTU21D;54385;53.516;49.456;2024-03-08T00:39:54;17.77;10.40
67555;HTU21D;54385;53.516;49.456;2024-03-08T00:42:20;17.77;10.43
67555;HTU21D;54385;53.516;49.456;2024-03-08T00:44:47;17.74;10.40
67555;HTU21D;54385;53.516;49.456;2024-03-08T00:47:17;17.75;10.40
67555;HTU21D;54385;53.516;49.456;2024-03-08T00:49:44;17.75;10.38
67555;HTU21D;54385;53.516;49.456;2024-03-08T00:52:10;17.74;10.39
67555;HTU21D;54385;53.516;49.456;2024-03-08T00:54:36;17.72;10.38
67555;HTU21D;54385;53.516;49.456;2024-03-08T00:57:04;17.69;10.35
67555;HTU21D;54385;53.516;49.456;2024-03-08T00:59:30;17.69;10.36
67555;HTU21D;54385;53.516;49.456;2024-03-08T01:02:00;17.67;10.36
67555;HTU21D;54385;53.516;49.456;2024-03-08T01:04:27;17.66;10.36
67555;HTU21D;54385;53.516;49.456;2024-03-08T01:06:56;17.68;10.35
67555;HTU21D;54385;53.516;49.456;2024-03-08T01:09:23;17.67;10.35
67555;HTU21D;54385;53.516;49.456;2024-03-08T01:11:50;17.69;10.34
67555;HTU21D;54385;53.516;49.456;2024-03-08T01:14:16;17.70;10.33
67555;HTU21D;54385;53.516;49.456;2024-03-08T01:16:43;17.70;10.34
67555;HTU21D;54385;53.516;49.456;2024-03-08T01:19:09;17.72;10.33
67555;HTU21D;54385;53.516;49.456;2024-03-08T01:21:35;17.73;10.33
67555;HTU21D;54385;53.516;49.456;2024-03-08T01:24:02;17.76;10.34
67555;HTU21D;54385;53.516;49.456;2024-03-08T01:26:29;17.76;10.37
67555;HTU21D;54385;53.516;49.456;2024-03-08T01:28:55;17.78;10.38
67555;HTU21D;54385;53.516;49.456;2024-03-08T01:31:21;17.81;10.40
67555;HTU21D;54385;53.516;49.456;2024-03-08T01:33:48;17.81;10.41
67555;HTU21D;54385;53.516;49.456;2024-03-08T01:36:16;17.83;10.42
67555;HTU21D;54385;53.516;49.456;2024-03-08T01:38:43;17.87;10.42
67555;HTU21D;54385;53.516;49.456;2024-03-08T01:41:10;17.88;10.43
67555;HTU21D;54385;53.516;49.456;2024-03-08T01:43:38;17.91;10.44
67555;HTU21D;54385;53.516;49.456;2024-03-08T01:46:05;17.91;10.45
67555;HTU21D;54385;53.516;49.456;2024-03-08T01:48:34;17.91;10.46
67555;HTU21D;54385;53.516;49.456;2024-03-08T01:51:01;17.94;10.46
67555;HTU21D;54385;53.516;49.456;2024-03-08T01:53:29;17.94;10.46
67555;HTU21D;54385;53.516;49.456;2024-03-08T01:55:57;17.94;10.47
67555;HTU21D;54385;53.516;49.456;2024-03-08T01:58:27;17.95;10.49
67555;HTU21D;54385;53.516;49.456;2024-03-08T02:00:54;17.97;10.48
67555;HTU21D;54385;53.516;49.456;2024-03-08T02:03:22;17.98;10.49
67555;HTU21D;54385;53.516;49.456;2024-03-08T02:05:51;17.98;10.50
67555;HTU21D;54385;53.516;49.456;2024-03-08T02:08:18;17.98;10.53
67555;HTU21D;54385;53.516;49.456;2024-03-08T02:10:45;17.99;10.53
67555;HTU21D;54385;53.516;49.456;2024-03-08T02:13:12;18.02;10.55
67555;HTU21D;54385;53.516;49.456;2024-03-08T02:15:58;18.02;10.54
67555;HTU21D;54385;53.516;49.456;2024-03-08T02:18:26;18.02;10.53
67555;HTU21D;54385;53.516;49.456;2024-03-08T02:20:57;18.04;10.57
67555;HTU21D;54385;53.516;49.456;2024-03-08T02:23:24;18.04;10.56
67555;HTU21D;54385;53.516;49.456;2024-03-08T02:25:51;18.05;10.56
67555;HTU21D;54385;53.516;49.456;2024-03-08T02:28:19;18.06;10.57
67555;HTU21D;54385;53.516;49.456;2024-03-08T02:30:47;18.07;10.59
67555;HTU21D;54385;53.516;49.456;2024-03-08T02:33:14;18.07;10.59
67555;HTU21D;54385;53.516;49.456;2024-03-08T02:35:44;18.09;10.60
67555;HTU21D;54385;53.516;49.456;2024-03-08T02:38:15;18.10;10.62
67555;HTU21D;54385;53.516;49.456;2024-03-08T02:40:46;18.12;10.63
67555;HTU21D;54385;53.516;49.456;2024-03-08T02:43:14;18.12;10.62
67555;HTU21D;54385;53.516;49.456;2024-03-08T02:45:41;18.13;10.67
67555;HTU21D;54385;53.516;49.456;2024-03-08T02:48:08;18.14;10.69
67555;HTU21D;54385;53.516;49.456;2024-03-08T02:50:35;18.15;10.71
67555;HTU21D;54385;53.516;49.456;2024-03-08T02:53:02;18.17;10.72
67555;HTU21D;54385;53.516;49.456;2024-03-08T02:55:30;18.17;10.73
67555;HTU21D;54385;53.516;49.456;2024-03-08T02:57:56;18.19;10.75
67555;HTU21D;54385;53.516;49.456;2024-03-08T03:00:23;18.19;10.78
67555;HTU21D;54385;53.516;49.456;2024-03-08T03:02:50;18.19;10.78
67555;HTU21D;54385;53.516;49.456;2024-03-08T03:05:23;18.22;10.82
67555;HTU21D;54385;53.516;49.456;2024-03-08T03:07:51;18.23;10.82
67555;HTU21D;54385;53.516;49.456;2024-03-08T03:10:18;18.25;10.83
67555;HTU21D;54385;53.516;49.456;2024-03-08T03:12:45;18.25;10.83
67555;HTU21D;54385;53.516;49.456;2024-03-08T03:15:12;18.26;10.83
67555;HTU21D;54385;53.516;49.456;2024-03-08T03:17:46;18.29;10.86
67555;HTU21D;54385;53.516;49.456;2024-03-08T03:20:14;18.30;10.84
67555;HTU21D;54385;53.516;49.456;2024-03-08T03:22:41;18.33;10.83
67555;HTU21D;54385;53.516;49.456;2024-03-08T03:25:10;18.35;10.80
67555;HTU21D;54385;53.516;49.456;2024-03-08T03:27:38;18.37;10.76
67555;HTU21D;54385;53.516;49.456;2024-03-08T03:30:06;18.40;10.72
67555;HTU21D;54385;53.516;49.456;2024-03-08T03:32:49;18.43;10.69
67555;HTU21D;54385;53.516;49.456;2024-03-08T03:35:18;18.43;10.61
67555;HTU21D;54385;53.516;49.456;2024-03-08T03:37:47;18.48;10.53
67555;HTU21D;54385;53.516;49.456;2024-03-08T03:40:48;18.54;10.48
67555;HTU21D;54385;53.516;49.456;2024-03-08T03:43:18;18.57;10.42
67555;HTU21D;54385;53.516;49.456;2024-03-08T03:45:44;18.59;10.39
67555;HTU21D;54385;53.516;49.456;2024-03-08T03:48:11;18.64;10.33
67555;HTU21D;54385;53.516;49.456;2024-03-08T03:50:37;18.67;10.30
67555;HTU21D;54385;53.516;49.456;2024-03-08T03:53:04;18.69;10.25
67555;HTU21D;54385;53.516;49.456;2024-03-08T03:55:35;18.73;10.21
67555;HTU21D;54385;53.516;49.456;2024-03-08T03:58:03;18.73;10.19
67555;HTU21D;54385;53.516;49.456;2024-03-08T04:00:29;18.79;10.20
67555;HTU21D;54385;53.516;49.456;2024-03-08T04:02:56;18.84;10.15
67555;HTU21D;54385;53.516;49.456;2024-03-08T04:05:25;18.92;10.11
67555;HTU21D;54385;53.516;49.456;2024-03-08T04:07:51;18.97;10.05
67555;HTU21D;54385;53.516;49.456;2024-03-08T04:10:18;19.00;10.04
67555;HTU21D;54385;53.516;49.456;2024-03-08T04:12:45;19.05;10.02
67555;HTU21D;54385;53.516;49.456;2024-03-08T04:15:15;19.07;10.01
67555;HTU21D;54385;53.516;49.456;2024-03-08T04:17:43;19.11;10.00
67555;HTU21D;54385;53.516;49.456;2024-03-08T04:20:12;19.15;9.96
67555;HTU21D;54385;53.516;49.456;2024-03-08T04:22:42;19.18;9.93
67555;HTU21D;54385;53.516;49.456;2024-03-08T04:25:10;19.20;9.93
67555;HTU21D;54385;53.516;49.456;2024-03-08T04:27:41;19.25;9.91
67555;HTU21D;54385;53.516;49.456;2024-03-08T04:30:22;19.25;9.88
67555;HTU21D;54385;53.516;49.456;2024-03-08T04:32:51;19.27;9.89
67555;HTU21D;54385;53.516;49.456;2024-03-08T04:35:23;19.30;9.85
67555;HTU21D;54385;53.516;49.456;2024-03-08T04:37:52;19.32;9.82
67555;HTU21D;54385;53.516;49.456;2024-03-08T04:40:18;19.36;9.79
67555;HTU21D;54385;53.516;49.456;2024-03-08T04:42:45;19.42;9.74
67555;HTU21D;54385;53.516;49.456;2024-03-08T04:45:11;19.45;9.69
67555;HTU21D;54385;53.516;49.456;2024-03-08T04:47:38;19.50;9.63
67555;HTU21D;54385;53.516;49.456;2024-03-08T04:50:05;19.54;9.57
67555;HTU21D;54385;53.516;49.456;2024-03-08T04:52:32;19.56;9.55
67555;HTU21D;54385;53.516;49.456;2024-03-08T04:55:00;19.59;9.50
67555;HTU21D;54385;53.516;49.456;2024-03-08T04:57:29;19.63;9.43
67555;HTU21D;54385;53.516;49.456;2024-03-08T04:59:55;19.66;9.38
67555;HTU21D;54385;53.516;49.456;2024-03-08T05:02:22;19.69;9.32
67555;HTU21D;54385;53.516;49.456;2024-03-08T05:04:52;19.73;9.28
67555;HTU21D;54385;53.516;49.456;2024-03-08T05:07:19;19.74;9.24
67555;HTU21D;54385;53.516;49.456;2024-03-08T05:09:45;19.80;9.19
67555;HTU21D;54385;53.516;49.456;2024-03-08T05:12:18;19.84;9.14
67555;HTU21D;54385;53.516;49.456;2024-03-08T05:14:48;19.91;9.04
67555;HTU21D;54385;53.516;49.456;2024-03-08T05:17:21;19.96;8.95
67555;HTU21D;54385;53.516;49.456;2024-03-08T05:19:53;20.04;8.94
67555;HTU21D;54385;53.516;49.456;2024-03-08T05:22:21;20.12;8.82
67555;HTU21D;54385;53.516;49.456;2024-03-08T05:24:48;20.16;8.76
67555;HTU21D;54385;53.516;49.456;2024-03-08T05:27:17;20.21;8.70
67555;HTU21D;54385;53.516;49.456;2024-03-08T05:29:46;20.24;8.52
67555;HTU21D;54385;53.516;49.456;2024-03-08T05:32:13;20.30;8.63
67555;HTU21D;54385;53.516;49.456;2024-03-08T05:34:40;20.39;8.54
67555;HTU21D;54385;53.516;49.456;2024-03-08T05:37:06;20.45;8.46
67555;HTU21D;54385;53.516;49.456;2024-03-08T05:39:33;20.51;8.40
67555;HTU21D;54385;53.516;49.456;2024-03-08T05:42:00;20.55;8.37
67555;HTU21D;54385;53.516;49.456;2024-03-08T05:44:36;20.62;8.34
67555;HTU21D;54385;53.516;49.456;2024-03-08T05:47:02;20.66;8.31
67555;HTU21D;54385;53.516;49.456;2024-03-08T05:49:29;20.72;8.26
67555;HTU21D;54385;53.516;49.456;2024-03-08T05:51:55;20.77;8.21
67555;HTU21D;54385;53.516;49.456;2024-03-08T05:54:21;20.85;8.15
67555;HTU21D;54385;53.516;49.456;2024-03-08T05:57:00;20.94;7.96
67555;HTU21D;54385;53.516;49.456;2024-03-08T05:59:26;21.02;8.02
67555;HTU21D;54385;53.516;49.456;2024-03-08T06:01:53;21.07;7.92
67555;HTU21D;54385;53.516;49.456;2024-03-08T06:04:19;21.16;7.79
67555;HTU21D;54385;53.516;49.456;2024-03-08T06:06:45;21.24;7.68
67555;HTU21D;54385;53.516;49.456;2024-03-08T06:09:15;21.31;7.55
67555;HTU21D;54385;53.516;49.456;2024-03-08T06:12:01;21.38;7.44
67555;HTU21D;54385;53.516;49.456;2024-03-08T06:14:33;21.49;7.44
67555;HTU21D;54385;53.516;49.456;2024-03-08T06:17:00;21.53;7.34
67555;HTU21D;54385;53.516;49.456;2024-03-08T06:19:28;21.60;7.20
67555;HTU21D;54385;53.516;49.456;2024-03-08T06:21:59;21.62;7.18
67555;HTU21D;54385;53.516;49.456;2024-03-08T06:24:32;21.68;7.05
67555;HTU21D;54385;53.516;49.456;2024-03-08T06:27:06;21.69;7.08
67555;HTU21D;54385;53.516;49.456;2024-03-08T06:29:33;21.67;7.07
67555;HTU21D;54385;53.516;49.456;2024-03-08T06:32:02;21.67;7.05
67555;HTU21D;54385;53.516;49.456;2024-03-08T06:34:35;21.69;6.79
67555;HTU21D;54385;53.516;49.456;2024-03-08T06:37:01;21.68;7.05
67555;HTU21D;54385;53.516;49.456;2024-03-08T06:39:28;21.66;7.03
67555;HTU21D;54385;53.516;49.456;2024-03-08T06:41:59;21.67;7.01
67555;HTU21D;54385;53.516;49.456;2024-03-08T06:44:25;21.65;7.01
67555;HTU21D;54385;53.516;49.456;2024-03-08T06:46:53;21.63;7.05
67555;HTU21D;54385;53.516;49.456;2024-03-08T06:49:19;21.64;7.05
67555;HTU21D;54385;53.516;49.456;2024-03-08T06:51:46;21.66;7.04
67555;HTU21D;54385;53.516;49.456;2024-03-08T06:54:12;21.66;7.05
67555;HTU21D;54385;53.516;49.456;2024-03-08T06:56:39;21.66;7.06
67555;HTU21D;54385;53.516;49.456;2024-03-08T06:59:06;21.68;7.05
67555;HTU21D;54385;53.516;49.456;2024-03-08T07:01:36;21.68;7.07
67555;HTU21D;54385;53.516;49.456;2024-03-08T07:04:02;21.70;7.10
67555;HTU21D;54385;53.516;49.456;2024-03-08T07:06:31;21.80;7.21
67555;HTU21D;54385;53.516;49.456;2024-03-08T07:09:00;21.89;7.67
67555;HTU21D;54385;53.516;49.456;2024-03-08T07:11:27;22.05;7.75
67555;HTU21D;54385;53.516;49.456;2024-03-08T07:13:54;22.13;7.67
67555;HTU21D;54385;53.516;49.456;2024-03-08T07:16:21;22.19;7.62
67555;HTU21D;54385;53.516;49.456;2024-03-08T07:18:50;22.21;7.56
67555;HTU21D;54385;53.516;49.456;2024-03-08T07:21:18;22.21;7.44
67555;HTU21D;54385;53.516;49.456;2024-03-08T07:23:46;22.25;7.32
67555;HTU21D;54385;53.516;49.456;2024-03-08T07:26:20;22.29;7.21
67555;HTU21D;54385;53.516;49.456;2024-03-08T07:28:46;22.34;7.18
67555;HTU21D;54385;53.516;49.456;2024-03-08T07:31:13;22.40;7.11
67555;HTU21D;54385;53.516;49.456;2024-03-08T07:33:52;22.48;7.06
67555;HTU21D;54385;53.516;49.456;2024-03-08T07:36:19;22.53;7.00
67555;HTU21D;54385;53.516;49.456;2024-03-08T07:38:48;22.58;6.94
67555;HTU21D;54385;53.516;49.456;2024-03-08T07:41:15;22.62;6.87
67555;HTU21D;54385;53.516;49.456;2024-03-08T07:43:42;22.62;6.83
67555;HTU21D;54385;53.516;49.456;2024-03-08T07:46:12;22.68;6.70
67555;HTU21D;54385;53.516;49.456;2024-03-08T07:48:39;22.79;6.61
67555;HTU21D;54385;53.516;49.456;2024-03-08T07:51:06;22.87;6.50
67555;HTU21D;54385;53.516;49.456;2024-03-08T07:53:35;22.97;6.41
67555;HTU21D;54385;53.516;49.456;2024-03-08T07:56:02;23.08;6.27
67555;HTU21D;54385;53.516;49.456;2024-03-08T07:58:30;23.15;6.22
67555;HTU21D;54385;53.516;49.456;2024-03-08T08:00:57;23.28;6.15
67555;HTU21D;54385;53.516;49.456;2024-03-08T08:03:25;23.40;6.07
67555;HTU21D;54385;53.516;49.456;2024-03-08T08:05:51;23.52;6.02
67555;HTU21D;54385;53.516;49.456;2024-03-08T08:08:18;23.62;5.94
67555;HTU21D;54385;53.516;49.456;2024-03-08T08:10:47;23.74;5.86
67555;HTU21D;54385;53.516;49.456;2024-03-08T08:13:14;23.81;5.83
67555;HTU21D;54385;53.516;49.456;2024-03-08T08:15:41;23.89;5.80
67555;HTU21D;54385;53.516;49.456;2024-03-08T08:18:08;23.98;5.75
67555;HTU21D;54385;53.516;49.456;2024-03-08T08:20:35;24.05;5.71
67555;HTU21D;54385;53.516;49.456;2024-03-08T08:23:02;24.16;5.63
67555;HTU21D;54385;53.516;49.456;2024-03-08T08:25:29;24.26;5.54
67555;HTU21D;54385;53.516;49.456;2024-03-08T08:27:56;24.38;5.44
67555;HTU21D;54385;53.516;49.456;2024-03-08T08:30:22;24.44;5.39
67555;HTU21D;54385;53.516;49.456;2024-03-08T08:32:49;24.49;5.32
67555;HTU21D;54385;53.516;49.456;2024-03-08T08:35:16;24.54;5.30
67555;HTU21D;54385;53.516;49.456;2024-03-08T08:37:43;24.57;5.24
67555;HTU21D;54385;53.516;49.456;2024-03-08T08:40:10;24.61;5.18
67555;HTU21D;54385;53.516;49.456;2024-03-08T08:42:40;24.68;5.15
67555;HTU21D;54385;53.516;49.456;2024-03-08T08:45:10;24.74;5.03
67555;HTU21D;54385;53.516;49.456;2024-03-08T08:47:40;24.82;5.08
67555;HTU21D;54385;53.516;49.456;2024-03-08T08:50:09;24.80;5.09
67555;HTU21D;54385;53.516;49.456;2024-03-08T08:52:38;24.82;5.08
67555;HTU21D;54385;53.516;49.456;2024-03-08T08:55:06;24.82;5.12
67555;HTU21D;54385;53.516;49.456;2024-03-08T08:57:33;24.80;5.12
67555;HTU21D;54385;53.516;49.456;2024-03-08T08:59:59;24.73;5.19
67555;HTU21D;54385;53.516;49.456;2024-03-08T09:02:26;24.66;5.23
67555;HTU21D;54385;53.516;49.456;2024-03-08T09:04:53;24.60;5.26
67555;HTU21D;54385;53.516;49.456;2024-03-08T09:07:19;24.53;5.29
67555;HTU21D;54385;53.516;49.456;2024-03-08T09:09:46;24.51;5.29
67555;HTU21D;54385;53.516;49.456;2024-03-08T09:12:12;24.47;5.16
67555;HTU21D;54385;53.516;49.456;2024-03-08T09:14:42;24.45;5.00
67555;HTU21D;54385;53.516;49.456;2024-03-08T09:17:09;24.47;4.88
67555;HTU21D;54385;53.516;49.456;2024-03-08T09:19:36;24.49;4.87
67555;HTU21D;54385;53.516;49.456;2024-03-08T09:22:06;24.55;4.78
67555;HTU21D;54385;53.516;49.456;2024-03-08T09:24:32;24.57;4.71
67555;HTU21D;54385;53.516;49.456;2024-03-08T09:26:59;24.58;4.65
67555;HTU21D;54385;53.516;49.456;2024-03-08T09:29:25;24.65;4.58
67555;HTU21D;54385;53.516;49.456;2024-03-08T09:31:52;24.71;4.53
67555;HTU21D;54385;53.516;49.456;2024-03-08T09:34:18;24.77;4.45
67555;HTU21D;54385;53.516;49.456;2024-03-08T09:36:45;24.82;4.44
67555;HTU21D;54385;53.516;49.456;2024-03-08T09:39:11;24.84;4.41
67555;HTU21D;54385;53.516;49.456;2024-03-08T09:41:48;24.82;4.36
67555;HTU21D;54385;53.516;49.456;2024-03-08T09:44:16;24.78;4.45
67555;HTU21D;54385;53.516;49.456;2024-03-08T09:46:42;24.76;4.41
67555;HTU21D;54385;53.516;49.456;2024-03-08T09:49:09;24.73;4.41
67555;HTU21D;54385;53.516;49.456;2024-03-08T09:51:38;24.72;4.40
67555;HTU21D;54385;53.516;49.456;2024-03-08T09:54:06;24.71;4.41
67555;HTU21D;54385;53.516;49.456;2024-03-08T09:56:39;24.76;4.32
67555;HTU21D;54385;53.516;49.456;2024-03-08T09:59:07;24.80;4.41
67555;HTU21D;54385;53.516;49.456;2024-03-08T10:01:48;24.93;4.35
67555;HTU21D;54385;53.516;49.456;2024-03-08T10:04:15;25.03;4.31
67555;HTU21D;54385;53.516;49.456;2024-03-08T10:06:43;25.17;4.24
67555;HTU21D;54385;53.516;49.456;2024-03-08T10:09:10;25.33;4.13
67555;HTU21D;54385;53.516;49.456;2024-03-08T10:11:37;25.45;4.08
67555;HTU21D;54385;53.516;49.456;2024-03-08T10:14:05;25.51;4.03
67555;HTU21D;54385;53.516;49.456;2024-03-08T10:16:32;25.57;4.03
67555;HTU21D;54385;53.516;49.456;2024-03-08T10:18:58;25.62;4.00
67555;HTU21D;54385;53.516;49.456;2024-03-08T10:21:26;25.68;3.96
67555;HTU21D;54385;53.516;49.456;2024-03-08T10:23:53;25.75;3.93
67555;HTU21D;54385;53.516;49.456;2024-03-08T10:26:25;25.79;3.93
67555;HTU21D;54385;53.516;49.456;2024-03-08T10:28:52;25.79;3.93
67555;HTU21D;54385;53.516;49.456;2024-03-08T10:31:22;25.80;3.92
67555;HTU21D;54385;53.516;49.456;2024-03-08T10:33:50;25.81;3.94
67555;HTU21D;54385;53.516;49.456;2024-03-08T10:36:16;25.80;3.96
67555;HTU21D;54385;53.516;49.456;2024-03-08T10:38:46;25.79;3.97
67555;HTU21D;54385;53.516;49.456;2024-03-08T10:41:13;25.79;4.01
67555;HTU21D;54385;53.516;49.456;2024-03-08T10:46:30;25.74;4.08
67555;HTU21D;54385;53.516;49.456;2024-03-08T10:49:00;25.74;4.10
67555;HTU21D;54385;53.516;49.456;2024-03-08T10:51:31;25.73;4.12
67555;HTU21D;54385;53.516;49.456;2024-03-08T10:53:59;25.69;4.17
67555;HTU21D;54385;53.516;49.456;2024-03-08T10:56:29;25.63;4.24
67555;HTU21D;54385;53.516;49.456;2024-03-08T10:58:56;25.57;4.28
67555;HTU21D;54385;53.516;49.456;2024-03-08T11:01:22;25.47;4.35
67555;HTU21D;54385;53.516;49.456;2024-03-08T11:03:52;25.39;4.38
67555;HTU21D;54385;53.516;49.456;2024-03-08T11:06:23;25.31;4.37
67555;HTU21D;54385;53.516;49.456;2024-03-08T11:08:55;25.24;4.41
67555;HTU21D;54385;53.516;49.456;2024-03-08T11:11:33;25.18;4.36
67555;HTU21D;54385;53.516;49.456;2024-03-08T11:14:03;25.13;4.48
67555;HTU21D;54385;53.516;49.456;2024-03-08T11:19:05;25.10;4.47
67555;HTU21D;54385;53.516;49.456;2024-03-08T11:21:32;25.09;4.54
67555;HTU21D;54385;53.516;49.456;2024-03-08T11:24:07;25.13;4.50
67555;HTU21D;54385;53.516;49.456;2024-03-08T11:26:34;25.16;4.51
67555;HTU21D;54385;53.516;49.456;2024-03-08T11:34:42;25.12;4.44
67555;HTU21D;54385;53.516;49.456;2024-03-08T11:37:19;25.06;4.44
67555;HTU21D;54385;53.516;49.456;2024-03-08T11:39:48;25.02;4.51
67555;HTU21D;54385;53.516;49.456;2024-03-08T11:42:18;24.97;4.55
67555;HTU21D;54385;53.516;49.456;2024-03-08T11:44:46;24.85;4.60
67555;HTU21D;54385;53.516;49.456;2024-03-08T11:47:14;24.73;4.65
67555;HTU21D;54385;53.516;49.456;2024-03-08T11:49:42;24.61;4.74
67555;HTU21D;54385;53.516;49.456;2024-03-08T11:52:12;24.50;4.79
67555;HTU21D;54385;53.516;49.456;2024-03-08T11:54:40;24.53;4.80
67555;HTU21D;54385;53.516;49.456;2024-03-08T11:57:07;24.55;4.78
67555;HTU21D;54385;53.516;49.456;2024-03-08T11:59:36;24.63;4.73
67555;HTU21D;54385;53.516;49.456;2024-03-08T12:02:04;24.87;4.65
67555;HTU21D;54385;53.516;49.456;2024-03-08T12:04:31;25.10;4.51
67555;HTU21D;54385;53.516;49.456;2024-03-08T12:07:01;25.27;4.42
67555;HTU21D;54385;53.516;49.456;2024-03-08T12:09:29;25.39;4.41
67555;HTU21D;54385;53.516;49.456;2024-03-08T12:11:55;25.48;4.38
67555;HTU21D;54385;53.516;49.456;2024-03-08T12:14:22;25.60;4.38
67555;HTU21D;54385;53.516;49.456;2024-03-08T12:16:51;25.90;4.30
67555;HTU21D;54385;53.516;49.456;2024-03-08T12:19:18;26.08;4.15
67555;HTU21D;54385;53.516;49.456;2024-03-08T12:21:44;26.15;4.12
67555;HTU21D;54385;53.516;49.456;2024-03-08T12:24:20;25.93;4.28
67555;HTU21D;54385;53.516;49.456;2024-03-08T12:26:48;25.95;4.32
67555;HTU21D;54385;53.516;49.456;2024-03-08T12:29:19;26.23;4.19
67555;HTU21D;54385;53.516;49.456;2024-03-08T12:31:55;26.47;4.22
67555;HTU21D;54385;53.516;49.456;2024-03-08T12:34:24;26.69;4.04
67555;HTU21D;54385;53.516;49.456;2024-03-08T12:36:53;26.51;4.09
67555;HTU21D;54385;53.516;49.456;2024-03-08T12:39:23;26.16;4.28
67555;HTU21D;54385;53.516;49.456;2024-03-08T12:41:53;25.77;4.52
67555;HTU21D;54385;53.516;49.456;2024-03-08T12:44:20;25.49;4.73
67555;HTU21D;54385;53.516;49.456;2024-03-08T12:46:51;25.27;4.86
67555;HTU21D;54385;53.516;49.456;2024-03-08T12:49:20;25.04;5.03
67555;HTU21D;54385;53.516;49.456;2024-03-08T12:51:51;24.83;5.17
67555;HTU21D;54385;53.516;49.456;2024-03-08T12:54:18;24.60;5.31
67555;HTU21D;54385;53.516;49.456;2024-03-08T12:56:50;24.42;5.46
67555;HTU21D;54385;53.516;49.456;2024-03-08T12:59:19;24.30;5.57
67555;HTU21D;54385;53.516;49.456;2024-03-08T13:01:47;24.18;5.66
67555;HTU21D;54385;53.516;49.456;2024-03-08T13:04:14;24.01;5.80
67555;HTU21D;54385;53.516;49.456;2024-03-08T13:06:41;23.82;5.95
67555;HTU21D;54385;53.516;49.456;2024-03-08T13:09:08;23.61;6.11
67555;HTU21D;54385;53.516;49.456;2024-03-08T13:11:38;23.40;6.31
67555;HTU21D;54385;53.516;49.456;2024-03-08T13:14:05;23.16;6.43
67555;HTU21D;54385;53.516;49.456;2024-03-08T13:16:31;22.97;6.60
67555;HTU21D;54385;53.516;49.456;2024-03-08T13:18:58;22.77;6.77
67555;HTU21D;54385;53.516;49.456;2024-03-08T13:21:25;22.56;6.96
67555;HTU21D;54385;53.516;49.456;2024-03-08T13:23:51;22.36;7.12
67555;HTU21D;54385;53.516;49.456;2024-03-08T13:26:19;22.17;7.27
67555;HTU21D;54385;53.516;49.456;2024-03-08T13:28:46;21.99;7.44
67555;HTU21D;54385;53.516;49.456;2024-03-08T13:31:15;21.84;7.63
67555;HTU21D;54385;53.516;49.456;2024-03-08T13:33:42;21.72;7.71
67555;HTU21D;54385;53.516;49.456;2024-03-08T13:36:08;21.61;7.83
67555;HTU21D;54385;53.516;49.456;2024-03-08T13:38:46;21.49;8.02
67555;HTU21D;54385;53.516;49.456;2024-03-08T13:41:14;21.38;8.05
67555;HTU21D;54385;53.516;49.456;2024-03-08T13:43:43;21.29;8.16
67555;HTU21D;54385;53.516;49.456;2024-03-08T13:46:11;21.18;8.27
67555;HTU21D;54385;53.516;49.456;2024-03-08T13:48:39;21.09;8.37
67555;HTU21D;54385;53.516;49.456;2024-03-08T13:51:05;20.99;8.47
67555;HTU21D;54385;53.516;49.456;2024-03-08T13:53:36;20.87;8.57
67555;HTU21D;54385;53.516;49.456;2024-03-08T13:56:04;20.77;8.69
67555;HTU21D;54385;53.516;49.456;2024-03-08T13:58:31;20.68;8.78
67555;HTU21D;54385;53.516;49.456;2024-03-08T14:00:58;20.60;8.88
67555;HTU21D;54385;53.516;49.456;2024-03-08T14:03:25;20.50;8.98
67555;HTU21D;54385;53.516;49.456;2024-03-08T14:05:51;20.43;9.08
67555;HTU21D;54385;53.516;49.456;2024-03-08T14:08:18;20.35;9.14
67555;HTU21D;54385;53.516;49.456;2024-03-08T14:10:44;20.29;9.24
67555;HTU21D;54385;53.516;49.456;2024-03-08T14:13:13;20.21;9.34
67555;HTU21D;54385;53.516;49.456;2024-03-08T14:15:42;20.13;9.41
67555;HTU21D;54385;53.516;49.456;2024-03-08T14:18:08;20.04;9.53
67555;HTU21D;54385;53.516;49.456;2024-03-08T14:20:35;19.97;9.63
67555;HTU21D;54385;53.516;49.456;2024-03-08T14:23:01;19.87;9.71
67555;HTU21D;54385;53.516;49.456;2024-03-08T14:25:28;19.80;9.85
67555;HTU21D;54385;53.516;49.456;2024-03-08T14:27:56;19.71;9.91
67555;HTU21D;54385;53.516;49.456;2024-03-08T14:30:29;19.62;10.03
67555;HTU21D;54385;53.516;49.456;2024-03-08T14:33:07;19.56;10.24
67555;HTU21D;54385;53.516;49.456;2024-03-08T14:35:38;19.48;10.19
67555;HTU21D;54385;53.516;49.456;2024-03-08T14:38:05;19.45;10.26
67555;HTU21D;54385;53.516;49.456;2024-03-08T14:40:34;19.40;10.33
67555;HTU21D;54385;53.516;49.456;2024-03-08T14:43:02;19.35;10.40
67555;HTU21D;54385;53.516;49.456;2024-03-08T14:45:30;19.30;10.49
67555;HTU21D;54385;53.516;49.456;2024-03-08T14:47:57;19.26;10.53
67555;HTU21D;54385;53.516;49.456;2024-03-08T14:50:24;19.24;10.61
67555;HTU21D;54385;53.516;49.456;2024-03-08T14:52:52;19.21;10.65
67555;HTU21D;54385;53.516;49.456;2024-03-08T14:55:19;19.17;10.72
67555;HTU21D;54385;53.516;49.456;2024-03-08T14:57:51;19.15;10.85
67555;HTU21D;54385;53.516;49.456;2024-03-08T15:00:19;19.13;10.82
67555;HTU21D;54385;53.516;49.456;2024-03-08T15:03:04;19.11;10.83
67555;HTU21D;54385;53.516;49.456;2024-03-08T15:05:36;19.10;10.98
67555;HTU21D;54385;53.516;49.456;2024-03-08T15:08:09;19.08;10.94
67555;HTU21D;54385;53.516;49.456;2024-03-08T15:10:39;19.08;11.04
67555;HTU21D;54385;53.516;49.456;2024-03-08T15:13:11;19.07;11.01
67555;HTU21D;54385;53.516;49.456;2024-03-08T15:15:46;19.07;11.02
67555;HTU21D;54385;53.516;49.456;2024-03-08T15:18:13;19.06;11.06
67555;HTU21D;54385;53.516;49.456;2024-03-08T15:20:40;19.06;11.09
67555;HTU21D;54385;53.516;49.456;2024-03-08T15:23:07;19.05;11.12
67555;HTU21D;54385;53.516;49.456;2024-03-08T15:25:36;19.05;11.14
67555;HTU21D;54385;53.516;49.456;2024-03-08T15:28:04;19.03;11.17